createdAt,value
2018-05-24T00:00:13.376Z,15.39
2018-05-24T00:03:15.812Z,15.39
2018-05-24T00:06:18.367Z,15.38
2018-05-24T00:09:20.831Z,15.63
2018-05-24T00:12:23.315Z,15.57
2018-05-24T00:15:25.754Z,15.59
2018-05-24T00:18:28.173Z,15.42
2018-05-24T00:21:30.743Z,15.39
2018-05-24T00:24:33.209Z,15.26
2018-05-24T00:27:35.676Z,15.34
2018-05-24T00:30:38.232Z,15.27
2018-05-24T00:33:40.781Z,15.15
2018-05-24T00:36:43.225Z,15.07
2018-05-24T00:39:45.708Z,14.98
2018-05-24T00:42:48.179Z,14.91
2018-05-24T00:45:50.788Z,15.11
2018-05-24T00:48:53.304Z,14.88
2018-05-24T00:51:55.721Z,14.88
2018-05-24T00:55:10.061Z,14.84
2018-05-24T00:58:12.572Z,14.82
2018-05-24T01:01:15.165Z,14.75
2018-05-24T01:04:17.626Z,14.91
2018-05-24T01:07:20.108Z,14.87
2018-05-24T01:10:22.617Z,14.71
2018-05-24T01:13:25.097Z,14.60
2018-05-24T01:16:27.562Z,14.53
2018-05-24T01:19:30.133Z,14.47
2018-05-24T01:22:32.591Z,14.47
2018-05-24T01:25:35.050Z,14.52
2018-05-24T01:28:37.532Z,14.48
2018-05-24T01:31:39.963Z,14.54
2018-05-24T01:34:42.433Z,14.72
2018-05-24T01:37:50.656Z,14.75
2018-05-24T01:40:53.123Z,14.65
2018-05-24T01:43:55.648Z,14.57
2018-05-24T01:46:58.082Z,14.41
2018-05-24T01:50:00.640Z,14.21
2018-05-24T01:53:03.167Z,14.06
2018-05-24T01:56:05.699Z,14.04
2018-05-24T01:59:08.132Z,14.00
2018-05-24T02:02:10.717Z,13.98
2018-05-24T02:05:13.172Z,13.92
2018-05-24T02:08:15.758Z,13.86
2018-05-24T02:11:18.202Z,13.86
2018-05-24T02:14:20.741Z,14.08
2018-05-24T02:17:23.286Z,14.12
2018-05-24T02:20:25.701Z,14.12
2018-05-24T02:23:28.769Z,14.11
2018-05-24T02:26:31.313Z,14.21
2018-05-24T02:29:33.821Z,14.22
2018-05-24T02:32:36.343Z,14.07
2018-05-24T02:35:38.871Z,14.06
2018-05-24T02:38:41.344Z,13.95
2018-05-24T02:41:43.829Z,14.19
2018-05-24T02:44:46.293Z,14.07
2018-05-24T02:47:48.752Z,14.07
2018-05-24T02:50:51.312Z,13.82
2018-05-24T02:53:53.883Z,13.82
2018-05-24T02:56:56.325Z,13.82
2018-05-24T02:59:58.903Z,13.76
2018-05-24T03:03:01.349Z,13.75
2018-05-24T03:06:03.847Z,13.67
2018-05-24T03:09:06.313Z,13.55
2018-05-24T03:12:08.874Z,13.53
2018-05-24T03:15:11.441Z,13.62
2018-05-24T03:18:13.898Z,13.63
2018-05-24T03:21:16.359Z,13.63
2018-05-24T03:24:18.845Z,13.77
2018-05-24T03:27:21.419Z,13.85
2018-05-24T03:30:23.924Z,13.82
2018-05-24T03:33:26.360Z,14.03
2018-05-24T03:36:28.855Z,14.12
2018-05-24T03:39:31.328Z,14.24
2018-05-24T03:42:33.853Z,14.29
2018-05-24T03:45:36.324Z,14.68
2018-05-24T03:48:38.990Z,14.77
2018-05-24T03:51:41.449Z,15.03
2018-05-24T03:54:43.948Z,15.36
2018-05-24T03:57:46.600Z,15.62
2018-05-24T04:01:00.900Z,15.56
2018-05-24T04:04:15.135Z,15.85
2018-05-24T04:07:17.587Z,16.24
2018-05-24T04:10:20.109Z,16.71
2018-05-24T04:13:22.575Z,17.10
2018-05-24T04:16:25.040Z,17.04
2018-05-24T04:19:27.513Z,17.51
2018-05-24T04:22:30.100Z,17.83
2018-05-24T04:25:32.644Z,17.53
2018-05-24T04:28:36.091Z,16.98
2018-05-24T04:31:38.561Z,16.33
2018-05-24T04:34:41.046Z,16.06
2018-05-24T04:37:43.624Z,15.91
2018-05-24T04:40:46.064Z,15.61
2018-05-24T04:43:48.575Z,15.57
2018-05-24T04:46:57.899Z,15.42
2018-05-24T04:50:00.323Z,15.16
2018-05-24T04:53:02.825Z,15.37
2018-05-24T04:56:05.311Z,15.88
2018-05-24T04:59:07.781Z,16.77
2018-05-24T05:02:10.225Z,17.18
2018-05-24T05:05:12.756Z,16.98
2018-05-24T05:08:15.219Z,16.39
2018-05-24T05:11:17.688Z,15.98
2018-05-24T05:14:20.245Z,15.92
2018-05-24T05:17:22.748Z,16.04
2018-05-24T05:20:25.264Z,16.24
2018-05-24T05:23:27.803Z,16.50
2018-05-24T05:26:30.185Z,17.29
2018-05-24T05:29:32.658Z,18.26
2018-05-24T05:32:35.096Z,18.80
2018-05-24T05:35:37.558Z,19.01
2018-05-24T05:38:40.024Z,18.81
2018-05-24T05:41:42.477Z,18.69
2018-05-24T05:44:45.037Z,19.26
2018-05-24T05:47:47.464Z,19.57
2018-05-24T05:50:49.907Z,19.94
2018-05-24T05:53:52.387Z,20.76
2018-05-24T05:56:54.872Z,20.98
2018-05-24T05:59:57.438Z,20.59
2018-05-24T06:02:59.990Z,21.28
2018-05-24T06:06:02.516Z,20.25
2018-05-24T06:09:05.120Z,20.50
2018-05-24T06:12:07.687Z,20.78
2018-05-24T06:15:10.171Z,21.15
2018-05-24T06:18:12.702Z,21.97
2018-05-24T06:21:15.177Z,22.17
2018-05-24T06:24:17.641Z,22.38
2018-05-24T06:27:20.124Z,23.37
2018-05-24T06:30:22.691Z,23.22
2018-05-24T06:33:25.146Z,22.23
2018-05-24T06:36:27.690Z,22.67
2018-05-24T06:39:30.121Z,21.69
2018-05-24T06:42:32.597Z,21.06
2018-05-24T06:45:35.047Z,21.61
2018-05-24T06:48:37.535Z,22.69
2018-05-24T06:51:40.025Z,22.52
2018-05-24T06:54:42.491Z,21.67
2018-05-24T06:57:44.981Z,20.63
2018-05-24T07:00:47.485Z,19.86
2018-05-24T07:03:49.925Z,19.12
2018-05-24T07:06:52.411Z,18.70
2018-05-24T07:09:54.857Z,18.39
2018-05-24T07:12:57.315Z,18.34
2018-05-24T07:15:59.791Z,18.47
2018-05-24T07:19:02.330Z,18.56
2018-05-24T07:22:04.897Z,18.34
2018-05-24T07:25:07.328Z,18.00
2018-05-24T07:28:09.815Z,17.88
2018-05-24T07:31:12.312Z,18.40
2018-05-24T07:34:14.767Z,18.91
2018-05-24T07:37:17.275Z,19.02
2018-05-24T07:40:19.752Z,19.66
2018-05-24T07:43:22.234Z,19.56
2018-05-24T07:46:24.726Z,19.74
2018-05-24T07:49:27.241Z,19.45
2018-05-24T07:52:29.776Z,19.46
2018-05-24T07:55:32.392Z,19.98
2018-05-24T07:58:34.924Z,20.05
2018-05-24T08:01:37.422Z,19.94
2018-05-24T08:04:40.671Z,20.27
2018-05-24T08:07:43.177Z,20.70
2018-05-24T08:10:45.621Z,20.79
2018-05-24T08:13:48.100Z,20.56
2018-05-24T08:16:50.689Z,20.88
2018-05-24T08:19:53.156Z,20.66
2018-05-24T08:22:55.646Z,20.40
2018-05-24T08:25:58.092Z,20.11
2018-05-24T08:29:00.596Z,19.82
2018-05-24T08:32:03.047Z,19.86
2018-05-24T08:35:05.553Z,19.96
2018-05-24T08:38:08.026Z,20.37
2018-05-24T08:41:10.457Z,20.55
2018-05-24T08:44:12.963Z,20.18
2018-05-24T08:47:15.515Z,20.13
2018-05-24T08:50:17.984Z,20.14
2018-05-24T08:53:20.626Z,19.98
2018-05-24T08:56:23.102Z,20.14
2018-05-24T08:59:25.669Z,20.15
2018-05-24T09:02:28.113Z,20.00
2018-05-24T09:05:30.592Z,19.58
2018-05-24T09:08:33.092Z,19.62
2018-05-24T09:11:35.567Z,19.37
2018-05-24T09:14:38.044Z,19.22
2018-05-24T09:17:40.669Z,19.06
2018-05-24T09:20:43.153Z,19.11
2018-05-24T09:23:45.668Z,18.86
2018-05-24T09:26:48.148Z,18.85
2018-05-24T09:29:50.629Z,18.81
2018-05-24T09:32:53.159Z,18.84
2018-05-24T09:35:55.624Z,19.01
2018-05-24T09:38:58.103Z,19.16
2018-05-24T09:42:00.697Z,19.47
2018-05-24T09:45:03.193Z,19.59
2018-05-24T09:48:05.694Z,20.17
2018-05-24T09:51:08.211Z,20.37
2018-05-24T09:54:10.718Z,20.27
2018-05-24T09:57:13.205Z,20.47
2018-05-24T10:00:15.809Z,20.50
2018-05-24T10:03:18.374Z,20.81
2018-05-24T10:06:20.849Z,21.19
2018-05-24T10:09:23.343Z,21.90
2018-05-24T10:12:25.804Z,21.88
2018-05-24T10:15:28.327Z,22.02
2018-05-24T10:18:30.774Z,22.20
2018-05-24T10:21:33.241Z,22.35
2018-05-24T10:24:35.894Z,22.61
2018-05-24T10:27:38.402Z,22.39
2018-05-24T10:30:40.958Z,22.86
2018-05-24T10:33:43.434Z,23.12
2018-05-24T10:36:45.901Z,22.82
2018-05-24T10:39:48.369Z,22.67
2018-05-24T10:42:50.904Z,22.55
2018-05-24T10:45:53.521Z,22.41
2018-05-24T10:48:56.031Z,22.29
2018-05-24T10:51:58.533Z,22.25
2018-05-24T10:55:01.015Z,21.96
2018-05-24T10:58:03.669Z,21.65
2018-05-24T11:01:06.093Z,21.64
2018-05-24T11:04:08.635Z,21.54
2018-05-24T11:07:11.267Z,21.31
2018-05-24T11:10:13.753Z,21.20
2018-05-24T11:13:16.285Z,21.01
2018-05-24T11:16:18.785Z,21.05
2018-05-24T11:19:22.550Z,20.96
2018-05-24T11:22:25.103Z,20.86
2018-05-24T11:25:27.575Z,20.94
2018-05-24T11:28:30.093Z,20.84
2018-05-24T11:31:32.599Z,20.89
2018-05-24T11:34:35.053Z,20.84
2018-05-24T11:37:37.700Z,20.71
2018-05-24T11:40:40.190Z,20.73
2018-05-24T11:43:42.734Z,20.65
2018-05-24T11:46:45.400Z,20.62
2018-05-24T11:49:47.963Z,20.47
2018-05-24T11:52:50.445Z,20.58
2018-05-24T11:55:52.889Z,20.51
2018-05-24T11:58:55.389Z,20.36
2018-05-24T12:01:57.850Z,20.45
2018-05-24T12:05:00.478Z,20.50
2018-05-24T12:08:03.049Z,20.42
2018-05-24T12:11:05.583Z,20.34
2018-05-24T12:14:08.058Z,20.24
2018-05-24T12:17:10.573Z,20.17
2018-05-24T12:20:13.183Z,20.30
2018-05-24T12:23:15.688Z,20.32
2018-05-24T12:26:18.420Z,20.16
2018-05-24T12:29:20.923Z,20.28
2018-05-24T12:32:23.404Z,20.21
2018-05-24T12:35:25.946Z,20.36
2018-05-24T12:38:28.381Z,20.18
2018-05-24T12:41:30.811Z,20.26
2018-05-24T12:44:33.336Z,20.48
2018-05-24T12:47:35.855Z,20.35
2018-05-24T12:50:38.401Z,20.49
2018-05-24T12:53:40.896Z,20.59
2018-05-24T12:56:43.421Z,20.63
2018-05-24T12:59:45.927Z,20.84
2018-05-24T13:02:48.374Z,20.75
2018-05-24T13:05:50.949Z,20.89
2018-05-24T13:08:53.573Z,20.74
2018-05-24T13:11:56.074Z,20.44
2018-05-24T13:14:58.603Z,20.65
2018-05-24T13:18:01.045Z,20.42
2018-05-24T13:21:03.538Z,20.30
2018-05-24T13:24:06.300Z,19.98
2018-05-24T13:27:08.810Z,19.68
2018-05-24T13:30:11.305Z,19.56
2018-05-24T13:33:13.792Z,19.53
2018-05-24T13:36:16.276Z,19.37
2018-05-24T13:39:18.708Z,19.45
2018-05-24T13:42:21.162Z,19.43
2018-05-24T13:45:23.679Z,19.23
2018-05-24T13:48:26.093Z,19.04
2018-05-24T13:51:28.644Z,19.08
2018-05-24T13:54:31.228Z,19.13
2018-05-24T13:57:44.475Z,19.03
2018-05-24T14:00:46.975Z,19.11
2018-05-24T14:03:49.425Z,19.16
2018-05-24T14:06:51.968Z,19.07
2018-05-24T14:09:54.441Z,19.06
2018-05-24T14:12:57.017Z,18.88
2018-05-24T14:15:59.595Z,18.83
2018-05-24T14:19:02.090Z,18.73
2018-05-24T14:22:04.607Z,18.86
2018-05-24T14:25:07.132Z,18.73
2018-05-24T14:28:09.612Z,18.69
2018-05-24T14:31:12.132Z,18.64
2018-05-24T14:34:14.675Z,18.63
2018-05-24T14:37:17.309Z,18.58
2018-05-24T14:40:19.787Z,18.69
2018-05-24T14:43:22.335Z,18.79
2018-05-24T14:46:24.812Z,18.89
2018-05-24T14:49:27.464Z,18.92
2018-05-24T14:52:30.021Z,18.88
2018-05-24T14:55:32.567Z,18.94
2018-05-24T14:58:35.049Z,18.98
2018-05-24T15:01:37.578Z,19.04
2018-05-24T15:04:40.115Z,19.10
2018-05-24T15:07:42.560Z,19.27
2018-05-24T15:10:45.068Z,19.38
2018-05-24T15:13:52.365Z,19.48
2018-05-24T15:16:54.824Z,19.45
2018-05-24T15:19:57.386Z,19.48
2018-05-24T15:22:59.866Z,19.35
2018-05-24T15:26:02.403Z,19.48
2018-05-24T15:29:04.889Z,19.62
2018-05-24T15:32:07.375Z,19.83
2018-05-24T15:35:09.942Z,19.99
2018-05-24T15:38:12.535Z,19.98
2018-05-24T15:41:16.256Z,19.89
2018-05-24T15:44:18.773Z,19.82
2018-05-24T15:47:21.366Z,19.76
2018-05-24T15:50:23.901Z,19.77
2018-05-24T15:53:26.523Z,19.91
2018-05-24T15:56:28.988Z,20.01
2018-05-24T15:59:31.473Z,20.12
2018-05-24T16:02:33.959Z,20.28
2018-05-24T16:05:36.541Z,20.44
2018-05-24T16:08:39.063Z,20.36
2018-05-24T16:11:41.531Z,20.27
2018-05-24T16:14:44.059Z,20.15
2018-05-24T16:17:46.565Z,20.12
2018-05-24T16:20:49.065Z,20.04
2018-05-24T16:23:51.553Z,19.95
2018-05-24T16:26:54.070Z,19.75
2018-05-24T16:29:56.552Z,19.57
2018-05-24T16:32:59.068Z,19.51
2018-05-24T16:36:01.658Z,19.43
2018-05-24T16:39:04.156Z,19.41
2018-05-24T16:42:06.744Z,19.44
2018-05-24T16:45:09.201Z,19.42
2018-05-24T16:48:11.707Z,19.44
2018-05-24T16:51:14.294Z,19.39
2018-05-24T16:54:16.892Z,19.53
2018-05-24T16:57:19.353Z,19.56
2018-05-24T17:00:21.932Z,19.80
2018-05-24T17:03:24.458Z,20.15
2018-05-24T17:06:27.028Z,20.19
2018-05-24T17:09:29.437Z,20.29
2018-05-24T17:12:32.011Z,20.43
2018-05-24T17:15:34.574Z,20.49
2018-05-24T17:18:37.044Z,20.69
2018-05-24T17:21:39.555Z,20.73
2018-05-24T17:24:42.059Z,20.47
2018-05-24T17:27:44.620Z,20.33
2018-05-24T17:30:47.133Z,20.32
2018-05-24T17:33:49.571Z,20.12
2018-05-24T17:36:52.088Z,19.96
2018-05-24T17:39:54.653Z,19.81
2018-05-24T17:42:57.231Z,19.74
2018-05-24T17:45:59.719Z,19.61
2018-05-24T17:49:02.211Z,19.71
2018-05-24T17:52:04.721Z,19.69
2018-05-24T17:55:07.189Z,19.55
2018-05-24T17:58:09.791Z,19.66
2018-05-24T18:01:12.362Z,19.63
2018-05-24T18:04:14.958Z,19.54
2018-05-24T18:07:17.527Z,19.54
2018-05-24T18:10:19.970Z,19.55
2018-05-24T18:13:22.504Z,19.42
2018-05-24T18:16:24.963Z,19.46
2018-05-24T18:19:27.569Z,19.53
2018-05-24T18:22:30.064Z,19.50
2018-05-24T18:25:32.598Z,19.46
2018-05-24T18:28:35.090Z,19.39
2018-05-24T18:31:37.589Z,19.33
2018-05-24T18:34:40.179Z,19.31
2018-05-24T18:37:42.724Z,19.22
2018-05-24T18:40:45.234Z,19.17
2018-05-24T18:43:47.877Z,19.12
2018-05-24T18:46:50.362Z,19.18
2018-05-24T18:49:52.840Z,19.18
2018-05-24T18:52:55.347Z,19.14
2018-05-24T18:55:57.912Z,19.28
2018-05-24T18:59:00.484Z,19.14
2018-05-24T19:02:03.139Z,19.08
2018-05-24T19:05:05.609Z,19.10
2018-05-24T19:08:08.141Z,19.00
2018-05-24T19:11:10.584Z,18.87
2018-05-24T19:14:13.086Z,18.83
2018-05-24T19:17:15.645Z,18.72
2018-05-24T19:20:18.119Z,18.82
2018-05-24T19:23:20.599Z,18.74
2018-05-24T19:26:23.152Z,18.69
2018-05-24T19:29:25.747Z,18.56
2018-05-24T19:32:28.208Z,18.44
2018-05-24T19:35:30.705Z,18.32
2018-05-24T19:38:33.404Z,18.33
2018-05-24T19:41:36.033Z,18.30
2018-05-24T19:44:38.523Z,18.28
2018-05-24T19:47:41.054Z,18.27
2018-05-24T19:50:43.611Z,18.27
2018-05-24T19:53:46.148Z,18.34
2018-05-24T19:56:48.661Z,18.40
2018-05-24T19:59:51.150Z,18.33
2018-05-24T20:02:53.699Z,18.52
2018-05-24T20:05:56.168Z,18.42
2018-05-24T20:08:58.625Z,18.37
2018-05-24T20:12:01.140Z,18.35
2018-05-24T20:15:03.599Z,18.30
2018-05-24T20:18:06.246Z,18.49
2018-05-24T20:21:08.756Z,18.61
2018-05-24T20:24:11.344Z,18.64
2018-05-24T20:27:13.864Z,18.87
2018-05-24T20:30:16.340Z,19.33
2018-05-24T20:33:18.868Z,19.41
2018-05-24T20:36:21.401Z,19.27
2018-05-24T20:39:23.996Z,19.22
2018-05-24T20:42:26.568Z,18.97
2018-05-24T20:45:29.113Z,18.78
2018-05-24T20:48:31.749Z,18.70
2018-05-24T20:51:34.367Z,18.74
2018-05-24T20:54:36.944Z,18.70
2018-05-24T20:57:39.421Z,18.62
2018-05-24T21:00:41.969Z,18.53
2018-05-24T21:03:44.509Z,18.63
2018-05-24T21:06:47.008Z,18.57
2018-05-24T21:09:49.498Z,18.50
2018-05-24T21:12:51.948Z,18.47
2018-05-24T21:15:54.462Z,18.42
2018-05-24T21:18:56.964Z,18.41
2018-05-24T21:21:59.460Z,18.36
2018-05-24T21:25:02.012Z,18.34
2018-05-24T21:28:04.479Z,18.27
2018-05-24T21:31:07.024Z,18.22
2018-05-24T21:34:09.544Z,18.18
2018-05-24T21:37:12.030Z,18.13
2018-05-24T21:40:14.516Z,18.10
2018-05-24T21:43:17.035Z,18.14
2018-05-24T21:46:19.539Z,18.03
2018-05-24T21:49:22.019Z,17.95
2018-05-24T21:52:24.491Z,17.92
2018-05-24T21:55:27.019Z,17.93
2018-05-24T21:58:29.474Z,17.88
2018-05-24T22:01:31.998Z,17.82
2018-05-24T22:04:34.520Z,17.81
2018-05-24T22:07:37.011Z,17.77
2018-05-24T22:10:39.551Z,17.76
2018-05-24T22:13:42.059Z,17.74
2018-05-24T22:16:44.508Z,17.77
2018-05-24T22:19:46.989Z,17.77
2018-05-24T22:22:49.480Z,17.73
2018-05-24T22:25:51.995Z,17.70
2018-05-24T22:28:54.578Z,17.69
2018-05-24T22:31:57.109Z,17.67
2018-05-24T22:34:59.609Z,17.65
2018-05-24T22:38:02.165Z,17.64
2018-05-24T22:41:04.641Z,17.60
2018-05-24T22:44:07.194Z,17.51
2018-05-24T22:47:09.692Z,17.51
2018-05-24T22:50:12.181Z,17.49
2018-05-24T22:53:14.640Z,17.47
2018-05-24T22:56:17.209Z,17.46
2018-05-24T22:59:19.662Z,17.45
2018-05-24T23:02:22.134Z,17.45
2018-05-24T23:05:24.592Z,17.43
2018-05-24T23:08:27.230Z,17.41
2018-05-24T23:11:29.655Z,17.41
2018-05-24T23:14:32.193Z,17.41
2018-05-24T23:17:34.661Z,17.41
2018-05-24T23:20:37.136Z,17.50
2018-05-24T23:23:39.604Z,17.50
2018-05-24T23:26:42.111Z,17.52
2018-05-24T23:29:44.575Z,17.50
2018-05-24T23:32:47.083Z,17.48
2018-05-24T23:35:49.637Z,17.51
2018-05-24T23:38:52.088Z,17.52
2018-05-24T23:41:54.671Z,17.51
2018-05-24T23:44:57.133Z,17.49
2018-05-24T23:47:59.701Z,17.49
2018-05-24T23:51:02.188Z,17.51
2018-05-24T23:54:04.671Z,17.46
2018-05-24T23:57:07.152Z,17.45
